createdAt,value
2024-03-13T00:00:34.562Z,4.35
2024-03-13T00:03:36.695Z,3.85
2024-03-13T00:06:39.435Z,4.20
2024-03-13T00:09:42.693Z,4.30
2024-03-13T00:12:46.341Z,4.00
2024-03-13T00:15:49.289Z,3.78
2024-03-13T00:18:52.203Z,3.65
2024-03-13T00:21:54.754Z,3.75
2024-03-13T00:24:57.474Z,3.95
2024-03-13T00:28:00.312Z,4.10
2024-03-13T00:31:03.359Z,4.10
2024-03-13T00:34:06.155Z,3.30
2024-03-13T00:37:09.917Z,3.72
2024-03-13T00:40:12.321Z,4.18
2024-03-13T00:43:15.768Z,3.95
2024-03-13T00:46:18.951Z,3.67
2024-03-13T00:49:21.882Z,3.70
2024-03-13T00:52:24.989Z,3.72
2024-03-13T00:55:28.600Z,3.50
2024-03-13T00:58:31.819Z,3.78
2024-03-13T01:01:34.736Z,3.50
2024-03-13T01:04:37.432Z,3.70
2024-03-13T01:07:40.538Z,3.97
2024-03-13T01:10:43.658Z,3.67
2024-03-13T01:13:46.430Z,3.75
2024-03-13T01:16:49.644Z,3.80
2024-03-13T01:19:52.732Z,3.53
2024-03-13T01:22:55.957Z,3.10
2024-03-13T01:25:58.514Z,3.53
2024-03-13T01:29:01.702Z,3.83
2024-03-13T01:32:04.837Z,3.85
2024-03-13T01:35:07.938Z,3.63
2024-03-13T01:38:11.590Z,3.58
2024-03-13T01:41:14.677Z,3.15
2024-03-13T01:44:17.440Z,3.28
2024-03-13T01:47:21.461Z,3.00
2024-03-13T01:50:24.922Z,3.08
2024-03-13T01:53:28.194Z,3.30
2024-03-13T01:56:32.138Z,2.58
2024-03-13T01:59:35.049Z,2.97
2024-03-13T02:02:37.893Z,2.60
2024-03-13T02:05:41.095Z,2.60
2024-03-13T02:08:44.129Z,2.70
2024-03-13T02:11:47.024Z,2.35
2024-03-13T02:14:49.392Z,2.55
2024-03-13T02:17:52.334Z,2.67
2024-03-13T02:20:54.509Z,2.25
2024-03-13T02:23:57.671Z,2.47
2024-03-13T02:27:00.654Z,2.22
2024-03-13T02:30:04.133Z,2.47
2024-03-13T02:33:07.662Z,2.28
2024-03-13T02:36:10.723Z,2.30
2024-03-13T02:39:14.258Z,2.60
2024-03-13T02:42:17.392Z,2.47
2024-03-13T02:45:20.501Z,2.65
2024-03-13T02:48:22.519Z,2.30
2024-03-13T02:51:25.079Z,2.50
2024-03-13T02:54:27.947Z,2.58
2024-03-13T02:57:30.468Z,2.92
2024-03-13T03:00:33.364Z,2.15
2024-03-13T03:03:36.501Z,2.75
2024-03-13T03:06:39.637Z,2.75
2024-03-13T03:09:42.287Z,2.60
2024-03-13T03:12:45.486Z,2.80
2024-03-13T03:15:48.485Z,2.85
2024-03-13T03:18:51.145Z,2.72
2024-03-13T03:21:53.938Z,2.30
2024-03-13T03:24:56.944Z,2.53
2024-03-13T03:27:59.513Z,2.70
2024-03-13T03:31:02.554Z,2.92
2024-03-13T03:34:05.482Z,3.00
2024-03-13T03:37:07.957Z,2.67
2024-03-13T03:40:11.200Z,2.90
2024-03-13T03:43:14.632Z,2.67
2024-03-13T03:46:17.667Z,2.95
2024-03-13T03:49:20.573Z,2.63
2024-03-13T03:52:23.566Z,2.50
2024-03-13T03:55:26.811Z,2.53
2024-03-13T03:58:29.685Z,2.70
2024-03-13T04:01:32.128Z,2.50
2024-03-13T04:04:35.004Z,2.80
2024-03-13T04:07:37.033Z,2.90
2024-03-13T04:10:40.676Z,2.85
2024-03-13T04:13:44.315Z,2.47
2024-03-13T04:16:47.544Z,2.70
2024-03-13T04:19:51.148Z,2.50
2024-03-13T04:22:53.272Z,2.53
2024-03-13T04:25:56.292Z,2.60
2024-03-13T04:28:58.560Z,2.45
2024-03-13T04:32:01.725Z,2.97
2024-03-13T04:35:04.727Z,2.35
2024-03-13T04:38:07.575Z,2.63
2024-03-13T04:41:10.805Z,2.40
2024-03-13T04:44:13.951Z,2.38
2024-03-13T04:47:17.142Z,2.45
2024-03-13T04:50:19.724Z,2.65
2024-03-13T04:53:22.965Z,2.50
2024-03-13T04:56:27.000Z,2.67
2024-03-13T04:59:30.086Z,2.83
2024-03-13T05:02:32.718Z,2.53
2024-03-13T05:05:35.863Z,2.38
2024-03-13T05:08:38.720Z,2.47
2024-03-13T05:11:41.597Z,2.50
2024-03-13T05:14:44.915Z,2.60
2024-03-13T05:17:48.505Z,2.40
2024-03-13T05:20:52.146Z,2.42
2024-03-13T05:23:54.584Z,2.50
2024-03-13T05:26:56.898Z,2.42
2024-03-13T05:29:59.819Z,2.33
2024-03-13T05:33:03.824Z,2.40
2024-03-13T05:36:07.602Z,2.30
2024-03-13T05:39:10.529Z,2.33
2024-03-13T05:42:12.884Z,2.40
2024-03-13T05:45:15.875Z,2.50
2024-03-13T05:48:18.338Z,2.08
2024-03-13T05:51:20.849Z,2.30
2024-03-13T05:54:23.284Z,2.38
2024-03-13T05:57:26.155Z,2.40
2024-03-13T06:00:29.046Z,2.30
2024-03-13T06:03:31.731Z,2.50
2024-03-13T06:06:34.971Z,2.30
2024-03-13T06:09:38.001Z,2.10
2024-03-13T06:12:41.465Z,2.30
2024-03-13T06:15:44.945Z,2.22
2024-03-13T06:18:48.984Z,2.20
2024-03-13T06:21:51.463Z,2.28
2024-03-13T06:24:53.793Z,2.50
2024-03-13T06:27:56.776Z,2.08
2024-03-13T06:31:00.630Z,2.00
2024-03-13T06:34:03.387Z,2.10
2024-03-13T06:37:06.548Z,1.85
2024-03-13T06:40:10.053Z,1.80
2024-03-13T06:43:13.277Z,2.08
2024-03-13T06:46:15.410Z,1.85
2024-03-13T06:49:18.898Z,1.80
2024-03-13T06:52:22.863Z,1.40
2024-03-13T06:55:26.262Z,1.70
2024-03-13T06:58:29.850Z,1.40
2024-03-13T07:01:33.067Z,1.60
2024-03-13T07:04:35.519Z,1.50
2024-03-13T07:07:37.950Z,1.40
2024-03-13T07:10:41.198Z,1.70
2024-03-13T07:13:44.400Z,1.50
2024-03-13T07:16:47.707Z,1.50
2024-03-13T07:19:51.259Z,1.60
2024-03-13T07:22:55.244Z,1.40
2024-03-13T07:25:58.374Z,1.40
2024-03-13T07:29:01.281Z,1.15
2024-03-13T07:32:04.466Z,1.50
2024-03-13T07:35:07.628Z,1.50
2024-03-13T07:38:10.874Z,1.60
2024-03-13T07:41:14.920Z,1.40
2024-03-13T07:44:17.531Z,1.30
2024-03-13T07:47:19.879Z,1.23
2024-03-13T07:50:22.694Z,1.40
2024-03-13T07:53:25.456Z,1.38
2024-03-13T07:56:28.621Z,1.30
2024-03-13T07:59:32.269Z,1.42
2024-03-13T08:02:34.597Z,1.30
2024-03-13T08:05:37.343Z,1.48
2024-03-13T09:08:43.734Z,1.63
2024-03-13T09:11:50.387Z,1.50
2024-03-13T09:14:53.463Z,1.50
2024-03-13T09:17:55.819Z,1.42
2024-03-13T09:20:58.570Z,1.52
2024-03-13T09:24:01.836Z,1.77
2024-03-13T09:27:04.799Z,1.70
2024-03-13T09:30:08.131Z,1.73
2024-03-13T09:33:11.105Z,1.60
2024-03-13T09:36:13.776Z,1.40
2024-03-13T09:39:17.902Z,1.65
2024-03-13T09:42:21.812Z,1.65
2024-03-13T09:45:24.707Z,1.67
2024-03-13T09:48:27.248Z,1.55
2024-03-13T09:51:30.845Z,1.80
2024-03-13T09:54:34.254Z,1.85
2024-03-13T09:57:37.925Z,2.10
2024-03-13T10:00:40.809Z,1.75
2024-03-13T10:03:43.765Z,1.92
2024-03-13T10:06:46.492Z,1.90
2024-03-13T10:09:49.313Z,2.00
2024-03-13T10:12:51.800Z,1.90
2024-03-13T10:15:54.161Z,1.80
2024-03-13T10:18:57.063Z,1.67
2024-03-13T10:21:59.466Z,1.80
2024-03-13T10:25:02.493Z,1.75
2024-03-13T10:28:05.394Z,1.88
2024-03-13T10:31:08.472Z,1.95
2024-03-13T10:34:11.567Z,1.73
2024-03-13T10:37:15.090Z,1.92
2024-03-13T10:40:18.541Z,1.75
2024-03-13T10:43:21.657Z,1.83
2024-03-13T10:46:25.362Z,1.80
2024-03-13T10:49:28.488Z,1.83
2024-03-13T10:52:31.611Z,1.98
2024-03-13T10:55:33.916Z,1.73
2024-03-13T10:58:36.773Z,1.75
2024-03-13T11:01:39.737Z,1.75
2024-03-13T11:04:43.163Z,1.83
2024-03-13T11:07:46.696Z,1.60
2024-03-13T11:11:02.038Z,1.98
2024-03-13T11:14:12.067Z,1.55
2024-03-13T11:17:14.849Z,1.63
2024-03-13T11:20:17.681Z,1.70
2024-03-13T11:23:20.755Z,1.63
2024-03-13T11:26:24.271Z,1.70
2024-03-13T11:29:27.143Z,1.65
2024-03-13T11:32:29.930Z,1.58
2024-03-13T11:35:33.226Z,1.65
2024-03-13T11:38:37.326Z,1.70
2024-03-13T11:41:41.228Z,1.50
2024-03-13T11:44:44.438Z,1.70
2024-03-13T11:47:46.953Z,1.40
2024-03-13T11:50:49.335Z,1.48
2024-03-13T11:53:51.728Z,1.38
2024-03-13T11:56:53.891Z,1.45
2024-03-13T11:59:57.000Z,1.65
2024-03-13T12:02:59.922Z,1.40
2024-03-13T12:06:04.327Z,1.42
2024-03-13T12:09:07.932Z,1.50
2024-03-13T12:12:10.769Z,1.50
2024-03-13T12:15:13.983Z,1.25
2024-03-13T12:18:17.942Z,1.67
2024-03-13T12:21:21.502Z,1.40
2024-03-13T12:24:24.764Z,1.30
2024-03-13T12:27:27.630Z,1.17
2024-03-13T12:30:30.471Z,1.20
2024-03-13T12:33:36.625Z,1.38
2024-03-13T12:36:39.449Z,1.35
2024-03-13T12:39:42.276Z,1.20
2024-03-13T12:42:45.550Z,1.40
2024-03-13T12:45:49.197Z,1.27
2024-03-13T12:48:52.188Z,1.48
2024-03-13T12:51:55.204Z,1.60
2024-03-13T12:54:57.882Z,1.30
2024-03-13T12:58:01.009Z,1.55
2024-03-13T13:01:03.541Z,1.60
2024-03-13T13:04:06.417Z,1.70
2024-03-13T13:07:09.483Z,1.38
2024-03-13T13:10:11.844Z,1.60
2024-03-13T13:13:14.688Z,1.63
2024-03-13T13:16:17.548Z,1.40
2024-03-13T13:19:19.916Z,1.80
2024-03-13T13:22:22.730Z,1.60
2024-03-13T13:25:26.039Z,1.90
2024-03-13T13:28:29.342Z,1.60
2024-03-13T13:31:32.902Z,1.90
2024-03-13T13:34:35.720Z,1.95
2024-03-13T13:37:38.584Z,1.48
2024-03-13T13:40:41.395Z,2.00
2024-03-13T13:43:44.961Z,1.90
2024-03-13T13:46:48.135Z,1.80
2024-03-13T13:49:51.291Z,2.00
2024-03-13T13:52:54.530Z,2.03
2024-03-13T13:55:58.131Z,2.03
2024-03-13T13:59:01.361Z,2.20
2024-03-13T14:02:05.025Z,2.40
2024-03-13T14:05:07.878Z,2.00
2024-03-13T14:08:10.823Z,2.13
2024-03-13T14:11:13.606Z,2.30
2024-03-13T14:14:16.551Z,2.05
2024-03-13T14:17:19.576Z,2.20
2024-03-13T14:20:23.683Z,2.35
2024-03-13T14:23:27.288Z,2.15
2024-03-13T14:26:30.409Z,2.08
2024-03-13T14:29:33.612Z,2.17
2024-03-13T14:32:37.218Z,2.03
2024-03-13T14:35:42.620Z,2.10
2024-03-13T14:38:47.413Z,2.10
2024-03-13T14:41:49.774Z,2.38
2024-03-13T14:44:53.059Z,1.95
2024-03-13T14:47:56.412Z,2.28
2024-03-13T14:51:00.073Z,2.20
2024-03-13T14:54:02.375Z,2.00
2024-03-13T14:57:04.982Z,2.17
2024-03-13T15:00:08.277Z,2.00
2024-03-13T15:03:11.202Z,2.10
2024-03-13T15:06:14.711Z,1.90
2024-03-13T15:09:18.495Z,1.98
2024-03-13T15:12:21.346Z,2.05
2024-03-13T15:15:24.526Z,2.20
2024-03-13T15:18:27.543Z,2.10
2024-03-13T15:21:31.269Z,1.75
2024-03-13T15:24:34.237Z,2.22
2024-03-13T15:27:37.438Z,1.88
2024-03-13T15:30:40.966Z,1.77
2024-03-13T15:33:44.465Z,1.92
2024-03-13T15:36:47.488Z,1.90
2024-03-13T15:39:50.700Z,2.28
2024-03-13T15:42:53.797Z,1.70
2024-03-13T15:45:56.160Z,2.00
2024-03-13T15:48:59.166Z,1.80
2024-03-13T15:52:02.554Z,1.88
2024-03-13T15:55:06.149Z,1.90
2024-03-13T15:58:09.394Z,1.70
2024-03-13T16:01:12.516Z,1.50
2024-03-13T16:04:14.848Z,1.70
2024-03-13T16:07:17.674Z,1.90
2024-03-13T16:10:20.014Z,2.00
2024-03-13T16:13:23.070Z,2.05
2024-03-13T16:16:26.296Z,1.83
2024-03-13T16:19:29.395Z,1.88
2024-03-13T16:22:32.631Z,1.90
2024-03-13T16:25:36.225Z,1.77
2024-03-13T16:28:39.258Z,1.58
2024-03-13T16:31:42.968Z,1.88
2024-03-13T16:34:45.523Z,1.67
2024-03-13T16:37:48.445Z,1.80
2024-03-13T16:40:51.637Z,1.70
2024-03-13T16:43:54.725Z,1.70
2024-03-13T16:46:57.005Z,2.05
2024-03-13T16:49:59.806Z,1.55
2024-03-13T16:53:02.772Z,1.90
2024-03-13T16:56:06.676Z,1.73
2024-03-13T16:59:10.014Z,1.52
2024-03-13T17:02:13.518Z,1.67
2024-03-13T17:05:17.599Z,1.65
2024-03-13T17:08:21.254Z,1.73
2024-03-13T17:11:25.522Z,1.80
2024-03-13T17:14:28.250Z,1.65
2024-03-13T17:17:31.561Z,1.70
2024-03-13T17:20:34.660Z,2.00
2024-03-13T17:23:37.485Z,1.67
2024-03-13T17:26:39.969Z,1.70
2024-03-13T17:29:42.902Z,1.60
2024-03-13T17:32:45.743Z,1.90
2024-03-13T17:35:48.668Z,1.60
2024-03-13T17:38:51.472Z,1.75
2024-03-13T17:41:54.730Z,1.73
2024-03-13T17:44:58.897Z,2.15
2024-03-13T17:48:02.736Z,1.83
2024-03-13T17:51:04.916Z,1.70
2024-03-13T17:54:08.480Z,1.83
2024-03-13T17:57:12.094Z,1.83
2024-03-13T18:00:15.069Z,1.85
2024-03-13T18:03:17.196Z,1.92
2024-03-13T18:06:20.352Z,1.73
2024-03-13T18:09:22.867Z,1.85
2024-03-13T18:12:26.284Z,2.08
2024-03-13T18:15:29.942Z,1.90
2024-03-13T18:18:32.952Z,1.80
2024-03-13T18:21:36.014Z,2.10
2024-03-13T18:24:39.485Z,1.77
2024-03-13T18:27:43.132Z,1.92
2024-03-13T18:30:45.539Z,2.00
2024-03-13T18:33:48.895Z,1.80
2024-03-13T18:36:51.990Z,1.73
2024-03-13T18:39:54.862Z,2.03
2024-03-13T18:42:57.677Z,1.83
2024-03-13T18:46:00.484Z,2.00
2024-03-13T18:49:03.777Z,1.70
2024-03-13T18:52:07.466Z,2.00
2024-03-13T18:55:10.077Z,1.95
2024-03-13T18:58:12.953Z,1.88
2024-03-13T19:01:15.412Z,1.92
2024-03-13T19:04:18.301Z,1.95
2024-03-13T19:07:20.622Z,2.03
2024-03-13T19:10:26.891Z,2.15
2024-03-13T19:13:31.126Z,2.00
2024-03-13T19:16:34.011Z,2.00
2024-03-13T19:19:37.336Z,1.80
2024-03-13T19:22:40.896Z,1.73
2024-03-13T19:25:44.584Z,1.85
2024-03-13T19:28:47.937Z,2.00
2024-03-13T19:31:52.699Z,1.90
2024-03-13T19:34:55.943Z,2.13
2024-03-13T19:37:58.827Z,1.92
2024-03-13T19:41:01.736Z,1.77
2024-03-13T19:44:04.460Z,1.90
2024-03-13T19:47:07.543Z,2.00
2024-03-13T19:50:10.860Z,2.20
2024-03-13T19:53:13.943Z,1.95
2024-03-13T19:56:17.139Z,2.10
2024-03-13T19:59:20.564Z,1.80
2024-03-13T20:02:23.934Z,1.95
2024-03-13T20:05:27.129Z,1.83
2024-03-13T20:08:29.521Z,2.10
2024-03-13T20:11:32.396Z,1.70
2024-03-13T20:14:34.837Z,1.85
2024-03-13T20:17:37.826Z,1.80
2024-03-13T20:20:41.617Z,1.90
2024-03-13T20:23:44.043Z,1.88
2024-03-13T20:26:46.440Z,1.77
2024-03-13T20:29:49.258Z,1.70
2024-03-13T20:32:52.741Z,1.90
2024-03-13T20:35:56.056Z,1.73
2024-03-13T20:38:59.929Z,1.90
2024-03-13T20:42:02.442Z,1.77
2024-03-13T20:45:05.293Z,1.90
2024-03-13T20:48:08.820Z,1.60
2024-03-13T20:51:12.544Z,1.98
2024-03-13T20:54:15.467Z,1.92
2024-03-13T20:57:18.428Z,1.80
2024-03-13T21:00:21.438Z,1.67
2024-03-13T21:03:24.284Z,1.98
2024-03-13T21:06:27.237Z,1.80
2024-03-13T21:09:30.101Z,1.70
2024-03-13T21:12:33.814Z,1.80
2024-03-13T21:15:42.590Z,1.90
2024-03-13T21:18:48.982Z,1.80
2024-03-13T21:21:52.356Z,1.88
2024-03-13T21:24:55.912Z,1.60
2024-03-13T21:27:58.687Z,1.90
2024-03-13T21:31:01.916Z,1.65
2024-03-13T21:34:05.350Z,2.03
2024-03-13T21:37:07.835Z,1.70
2024-03-13T21:40:10.202Z,1.60
2024-03-13T21:43:12.738Z,1.60
2024-03-13T21:46:15.370Z,1.70
2024-03-13T21:49:18.534Z,1.50
2024-03-13T21:52:21.779Z,2.10
2024-03-13T21:55:25.355Z,1.73
2024-03-13T21:58:28.198Z,1.77
2024-03-13T22:01:31.037Z,1.60
2024-03-13T22:04:33.503Z,1.80
2024-03-13T22:07:36.251Z,1.83
2024-03-13T22:10:39.496Z,1.80
2024-03-13T22:13:43.109Z,1.90
2024-03-13T22:16:46.275Z,1.60
2024-03-13T22:19:49.722Z,1.83
2024-03-13T22:22:52.978Z,1.88
2024-03-13T22:25:56.059Z,1.73
2024-03-13T22:28:58.863Z,1.70
2024-03-13T22:32:01.996Z,1.73
2024-03-13T22:35:05.268Z,2.00
2024-03-13T22:38:07.560Z,1.65
2024-03-13T22:41:11.173Z,1.63
2024-03-13T22:44:13.723Z,1.63
2024-03-13T22:47:17.021Z,1.77
2024-03-13T22:50:21.077Z,1.52
2024-03-13T22:53:24.587Z,1.73
2024-03-13T22:56:29.651Z,1.65
2024-03-13T22:59:32.577Z,1.50
2024-03-13T23:02:35.857Z,1.63
2024-03-13T23:05:38.643Z,1.55
2024-03-13T23:08:41.575Z,1.70
2024-03-13T23:11:44.764Z,1.58
2024-03-13T23:14:48.754Z,1.50
2024-03-13T23:17:52.213Z,1.58
2024-03-13T23:20:56.228Z,1.70
2024-03-13T23:23:59.927Z,1.60
2024-03-13T23:27:03.145Z,1.75
2024-03-13T23:30:06.122Z,1.85
2024-03-13T23:33:09.535Z,1.60
2024-03-13T23:36:13.647Z,1.80
2024-03-13T23:39:16.300Z,1.70
2024-03-13T23:42:18.904Z,1.67
2024-03-13T23:45:21.509Z,1.80
2024-03-13T23:48:24.542Z,1.50
2024-03-13T23:51:27.781Z,1.77
2024-03-13T23:54:30.507Z,1.60
2024-03-13T23:57:33.484Z,1.67
